Pingree, ND (58476)

11:28 AM CDT on July 25, 2014 (GMT -0500)
RAWS ARROWWOOD 2 ND US (MAWWN8) Elev 1520 ft | 47.27 °N, 98.87 °W | Change Station

Current weather conditions updated 54 minutes ago

Partly Cloudy
Partly Cloudy
76 °F
Feels Like 77 °F
N
9
Wind Variable Wind from NW
Gusts 16.0 mph

Today is forecast to be Warmer than yesterday.

Today
High -- | Low -- °F
--% Chance of Precip.
Yesterday
High -- | Low -- °F
Precip. -- in
6:06 AM 9:17 PM
Waning Crescent, 1% visible
Pressure 29.79 in
Visibility 10.0 miles
Clouds Few 2200 ft
Scattered Clouds 2600 ft
Mostly Cloudy 3300 ft
Heat Index 77 °F
Dew Point 68 °F
Humidity 77%
Rainfall 0.06 in
Snow Depth Not available.
UV 4 out of 12
Pollen 6.70 out of 12
Air Quality Not available.
Flu Activity Not available.
SPECI KJMS 251625Z AUTO 31014G19KT 10SM FEW022 SCT026 BKN033 24/18 A2979 RMK AO2 T02390183

More Conditions Fewer Conditions

Pressure 29.79 in
Visibility 10.0 miles
Clouds Few 2200 ft
Scattered Clouds 2600 ft
Mostly Cloudy 3300 ft
Heat Index 77 °F
Dew Point 68 °F
Humidity 77%
Rainfall 0.06 in
Snow Depth Not available.
UV 4 out of 12
Pollen 6.70 out of 12
Air Quality Not available.
Flu Activity Not available.
SPECI KJMS 251625Z AUTO 31014G19KT 10SM FEW022 SCT026 BKN033 24/18 A2979 RMK AO2 T02390183

More Conditions Fewer Conditions

10-Day Weather Forecast

Almanac

Astronomy

Jul. 25, 2014 Rise Set
Actual Time 6:06 AM CDT 9:17 PM CDT
Civil Twilight 5:29 AM CDT 9:54 PM CDT
Nautical Twilight 4:42 AM CDT 10:41 PM CDT
Astronomical Twilight 3:42 AM CDT 11:40 PM CDT
Moon 5:10 AM CDT 8:11 PM CDT
Length of Visible Light 16h 24m
Length of Day
15h 11m
Tomorrow will be 2m 21s shorter.
Waning Crescent, 1% of the Moon is Illuminated
Today
Waning Crescent
Jul 26
New
Aug 3
First Quarter
Aug 10
Full
Aug 17
Last Quarter

Today's Extremes

State Highs State Lows

Community

WunderPhotos

Upload Photos

1,737,362 photos uploaded!

Nearby

Snow Depth

Station Depth Elevation
No new snow has been reported.

Earthquake Activity

City Distance Mag. Time & Date
No recent earthquake activity has been reported nearby.
Minimum magnitude displayed is 2.5.

Coastal Water Temperatures

Place Temperature
No Stations Reporting

Nearby Weather Stations

Station Location Temp. Heat Index Dew Point Humidity Wind Precip. Elev Updated Type
RAWS ARROWWOOD 2 ND, Kensal, ND 76 °F 77 °F 68 °F 77% NW  at  9 mph 0.00 in / hr 1520 ft 10:34 AM CDT MADIS
Eldridge-Lippert, Jamestown, ND 74.9 °F 76 °F 66 °F 74% North  at  3.0 mph 0.00 in / hr 1649 ft 11:28 AM CDT Rapid Fire
Leapaldt Addition, Jamestown, ND 75.0 °F 75 °F 69 °F 82% NNW  at  4.2 mph - / hr 1486 ft 11:14 AM CDT Normal
Thurlow Farms, Carrington, ND 74.1 °F 75 °F 66 °F 77% East  at  13.0 mph 0.00 in / hr 1535 ft 11:27 AM CDT Normal

Show More Stations Show Fewer Stations